Time;durP1;ratioP1;P1;durP2;ratioP2;P2;SDS_P1;SDS_P2;PMS_P1;PMS_P2;Temp;Humidity;BMP_temperature;BMP_pressure;BME280_temperature;BME280_humidity;BME280_pressure;Samples;Min_cycle;Max_cycle;Signal;HPM_P1;HPM_P2
2021/12/11 00:01:06;;;;;;;841.03;751.60;;;1.30;99.90;;;;;;6171888;23;20502;-86
2021/12/11 00:03:37;;;;;;;830.13;741.37;;;1.40;99.90;;;;;;6172208;23;20429;-86
2021/12/11 00:06:09;;;;;;;837.30;747.53;;;1.50;99.90;;;;;;6171838;23;20919;-86
2021/12/11 00:08:36;;;;;;;841.10;751.77;;;1.30;99.90;;;;;;6161953;23;20479;-86
2021/12/11 00:11:15;;;;;;;839.50;748.80;;;1.40;99.90;;;;;;6171658;23;20418;-86
2021/12/11 00:13:44;;;;;;;858.80;767.67;;;1.30;99.90;;;;;;6171881;23;20712;-86
2021/12/11 00:16:24;;;;;;;866.73;773.53;;;1.10;99.90;;;;;;6171816;23;20421;-86
2021/12/11 00:19:07;;;;;;;862.60;770.43;;;1.10;99.90;;;;;;6171921;23;20425;-86
2021/12/11 00:21:46;;;;;;;856.20;765.93;;;1.30;99.90;;;;;;6171716;23;20409;-86
2021/12/11 00:24:25;;;;;;;872.20;779.00;;;1.30;99.90;;;;;;6171910;23;20773;-86
2021/12/11 00:27:06;;;;;;;877.87;783.70;;;1.30;99.90;;;;;;6161943;23;20402;-86
2021/12/11 00:29:40;;;;;;;882.83;788.73;;;1.50;99.90;;;;;;6171213;23;20409;-87
2021/12/11 00:32:16;;;;;;;882.23;789.67;;;1.40;99.90;;;;;;6170872;23;20410;-86
2021/12/11 00:34:44;;;;;;;891.73;798.43;;;1.50;99.90;;;;;;6161878;23;20418;-86
2021/12/11 00:37:19;;;;;;;905.23;812.37;;;1.40;99.90;;;;;;6170718;23;20410;-86
2021/12/11 00:40:03;;;;;;;906.50;812.40;;;1.50;99.90;;;;;;6160162;23;20409;-86
2021/12/11 00:42:33;;;;;;;931.57;832.27;;;1.40;99.90;;;;;;6170749;23;21029;-86
2021/12/11 00:45:14;;;;;;;930.57;829.40;;;1.40;99.90;;;;;;6161119;23;20398;-85
2021/12/11 00:47:46;;;;;;;962.10;843.93;;;1.30;99.90;;;;;;6171183;23;20425;-86
2021/12/11 00:50:20;;;;;;;964.53;847.27;;;1.30;99.90;;;;;;6161882;23;20485;-86
2021/12/11 00:52:51;;;;;;;949.53;842.53;;;1.40;99.90;;;;;;6162763;23;20500;-86
2021/12/11 00:55:21;;;;;;;974.47;849.93;;;1.50;99.90;;;;;;6172507;23;20484;-86
2021/12/11 00:58:00;;;;;;;1043.60;872.57;;;1.40;99.90;;;;;;6173720;23;20438;-86
2021/12/11 01:00:34;;;;;;;965.63;860.20;;;1.50;99.90;;;;;;6164573;23;20462;-87
2021/12/11 01:03:01;;;;;;;1031.37;863.03;;;1.50;99.90;;;;;;6176269;23;20425;-87
2021/12/11 01:05:37;;;;;;;971.07;864.57;;;1.60;99.90;;;;;;6175386;23;20441;-86
2021/12/11 01:08:16;;;;;;;1010.47;864.77;;;1.50;99.90;;;;;;6176646;23;20971;-87
2021/12/11 01:10:43;;;;;;;955.37;853.37;;;1.70;99.90;;;;;;6177286;23;20397;-87
2021/12/11 01:13:15;;;;;;;983.07;862.23;;;1.70;99.90;;;;;;6175724;23;20496;-87
2021/12/11 01:15:54;;;;;;;962.03;857.80;;;1.80;99.90;;;;;;6175741;23;20431;-87
2021/12/11 01:18:34;;;;;;;985.70;846.73;;;1.80;99.90;;;;;;6176653;23;20492;-87
2021/12/11 01:21:12;;;;;;;985.50;865.73;;;1.90;99.90;;;;;;6167409;23;20404;-86
2021/12/11 01:23:57;;;;;;;964.63;859.97;;;1.80;99.90;;;;;;6177055;23;20430;-87
2021/12/11 01:26:24;;;;;;;964.30;862.83;;;1.90;99.90;;;;;;6176454;23;20469;-87
2021/12/11 01:28:53;;;;;;;968.23;871.00;;;2.00;99.90;;;;;;6176745;23;20422;-86
2021/12/11 01:31:23;;;;;;;958.37;861.07;;;2.00;99.90;;;;;;6176636;23;20513;-87
2021/12/11 01:33:51;;;;;;;964.60;865.73;;;2.10;99.90;;;;;;6176851;23;20466;-87
2021/12/11 01:36:18;;;;;;;957.37;860.13;;;2.10;99.90;;;;;;6166778;23;20413;-86
2021/12/11 01:38:45;;;;;;;949.37;851.73;;;2.20;99.90;;;;;;6166140;23;20484;-86
2021/12/11 01:41:17;;;;;;;950.20;854.33;;;2.20;99.90;;;;;;6166867;23;20410;-86
2021/12/11 01:43:46;;;;;;;951.83;857.93;;;2.20;99.90;;;;;;6176674;23;20477;-86
2021/12/11 01:46:19;;;;;;;953.63;860.17;;;2.20;99.90;;;;;;6166204;23;20482;-86
2021/12/11 01:48:53;;;;;;;935.73;842.50;;;2.20;99.90;;;;;;6176421;23;20430;-86
2021/12/11 01:51:27;;;;;;;928.93;835.67;;;2.30;99.90;;;;;;6176501;23;20497;-86
2021/12/11 01:54:00;;;;;;;945.00;851.90;;;2.20;99.90;;;;;;6166369;23;20398;-86
2021/12/11 01:56:31;;;;;;;925.23;835.00;;;2.20;99.90;;;;;;6176303;23;20401;-86
2021/12/11 01:59:04;;;;;;;907.80;819.43;;;2.20;99.90;;;;;;6176651;23;20464;-86
2021/12/11 02:01:38;;;;;;;904.93;814.90;;;2.30;99.90;;;;;;6165723;23;20777;-86
2021/12/11 02:04:11;;;;;;;880.83;797.57;;;2.30;99.90;;;;;;6175117;23;20422;-86
2021/12/11 02:06:41;;;;;;;870.70;784.80;;;2.30;99.90;;;;;;6165120;23;20469;-86
2021/12/11 02:09:14;;;;;;;901.67;810.90;;;2.20;99.90;;;;;;6175971;23;20426;-86
2021/12/11 02:11:42;;;;;;;875.23;789.77;;;2.30;99.90;;;;;;6175873;23;20430;-86
2021/12/11 02:14:09;;;;;;;849.30;763.20;;;2.20;99.90;;;;;;6176163;23;20421;-86
2021/12/11 02:16:43;;;;;;;839.40;755.90;;;2.40;99.90;;;;;;6175471;23;20424;-86
2021/12/11 02:19:14;;;;;;;845.93;761.67;;;2.30;99.90;;;;;;6174895;23;20433;-86
2021/12/11 02:21:57;;;;;;;874.90;790.80;;;2.30;99.90;;;;;;6174714;23;20426;-86
2021/12/11 02:24:26;;;;;;;860.10;777.10;;;2.30;99.90;;;;;;6166008;23;20425;-86
2021/12/11 02:26:56;;;;;;;850.07;765.30;;;2.30;99.90;;;;;;6164718;23;20484;-86
2021/12/11 02:29:29;;;;;;;862.33;774.33;;;2.30;99.90;;;;;;6174991;23;20433;-86
2021/12/11 02:32:01;;;;;;;853.23;769.07;;;2.30;99.90;;;;;;6176823;23;20419;-86
2021/12/11 02:34:34;;;;;;;854.50;769.03;;;2.20;99.90;;;;;;6174572;23;20464;-86
2021/12/11 02:37:07;;;;;;;857.87;772.40;;;2.20;99.90;;;;;;6165279;23;20422;-86
2021/12/11 02:39:38;;;;;;;853.23;768.47;;;2.20;99.90;;;;;;6175904;23;20441;-86
2021/12/11 02:42:10;;;;;;;862.87;778.47;;;2.20;99.90;;;;;;6176365;23;20434;-86
2021/12/11 02:44:40;;;;;;;856.93;770.87;;;2.10;99.90;;;;;;6175597;23;20422;-86
2021/12/11 02:47:11;;;;;;;875.47;789.57;;;2.10;99.90;;;;;;6174361;23;20445;-86
2021/12/11 02:49:42;;;;;;;859.93;774.97;;;2.00;99.90;;;;;;6164975;23;20873;-86
2021/12/11 02:52:14;;;;;;;857.33;772.57;;;2.00;99.90;;;;;;6174372;23;20719;-86
2021/12/11 02:54:46;;;;;;;853.70;767.13;;;2.10;99.90;;;;;;6165892;23;20486;-86
2021/12/11 02:57:17;;;;;;;846.07;761.80;;;2.00;99.90;;;;;;6174944;23;20416;-86
2021/12/11 02:59:45;;;;;;;871.13;783.20;;;1.80;99.90;;;;;;6175906;23;20473;-86
2021/12/11 03:02:15;;;;;;;876.17;788.80;;;1.70;99.90;;;;;;6173167;23;20406;-86
2021/12/11 03:04:48;;;;;;;874.03;785.10;;;1.80;99.90;;;;;;6163676;23;20422;-85
2021/12/11 03:07:17;;;;;;;878.97;789.60;;;1.80;99.90;;;;;;6173013;23;20955;-86
2021/12/11 03:09:50;;;;;;;859.57;773.17;;;1.90;99.90;;;;;;6164030;23;20441;-86
2021/12/11 03:12:19;;;;;;;861.17;773.43;;;2.00;99.90;;;;;;6174224;23;20417;-86
2021/12/11 03:14:46;;;;;;;845.60;758.03;;;2.00;99.90;;;;;;6173493;23;20500;-85
2021/12/11 03:17:17;;;;;;;831.97;746.90;;;2.10;99.90;;;;;;6173773;23;20417;-86
2021/12/11 03:19:45;;;;;;;858.83;771.87;;;2.00;99.90;;;;;;6173176;23;20418;-85
2021/12/11 03:22:19;;;;;;;848.83;763.57;;;2.00;99.90;;;;;;6173766;23;20449;-86
2021/12/11 03:24:47;;;;;;;841.90;755.30;;;2.10;99.90;;;;;;6173766;23;20429;-86
2021/12/11 03:27:14;;;;;;;839.88;755.92;;;2.00;99.90;;;;;;6173814;23;20441;-85
2021/12/11 03:29:41;;;;;;;851.83;768.03;;;2.00;99.90;;;;;;6171589;23;20167;-85
2021/12/11 03:32:12;;;;;;;840.90;758.43;;;2.00;99.90;;;;;;6175678;23;20718;-86
2021/12/11 03:34:43;;;;;;;853.70;767.83;;;2.00;99.90;;;;;;6165091;23;20473;-85
2021/12/11 03:37:13;;;;;;;856.10;771.33;;;1.90;99.90;;;;;;6175160;23;20493;-85
2021/12/11 03:39:43;;;;;;;855.30;770.83;;;1.90;99.90;;;;;;6176441;23;20412;-85
2021/12/11 03:42:15;;;;;;;853.30;768.47;;;1.80;99.90;;;;;;6175988;23;20419;-85
2021/12/11 03:44:43;;;;;;;851.10;765.57;;;1.80;99.90;;;;;;6175169;23;20524;-85
2021/12/11 03:47:12;;;;;;;846.97;760.30;;;1.80;99.90;;;;;;6174914;23;20428;-85
2021/12/11 03:49:43;;;;;;;845.50;760.63;;;1.90;99.90;;;;;;6174099;23;20402;-85
2021/12/11 03:52:13;;;;;;;852.77;765.97;;;1.80;99.90;;;;;;6175409;23;20414;-85
2021/12/11 03:54:44;;;;;;;856.67;771.40;;;1.70;99.90;;;;;;6175409;23;20417;-85
2021/12/11 03:57:15;;;;;;;855.63;767.63;;;1.60;99.90;;;;;;6174611;23;20390;-85
2021/12/11 03:59:42;;;;;;;872.43;784.50;;;1.60;99.90;;;;;;6175553;23;20453;-85
2021/12/11 04:02:12;;;;;;;880.03;789.93;;;1.50;99.90;;;;;;6174598;23;20438;-85
2021/12/11 04:04:43;;;;;;;882.87;794.33;;;1.50;99.90;;;;;;6174336;23;20477;-85
2021/12/11 04:07:16;;;;;;;886.27;797.97;;;1.30;99.90;;;;;;6174510;23;20418;-85
2021/12/11 04:09:44;;;;;;;903.73;812.33;;;1.30;99.90;;;;;;6164507;23;20402;-85
2021/12/11 04:12:12;;;;;;;916.17;822.93;;;1.30;99.90;;;;;;6175080;23;20409;-85
2021/12/11 04:14:42;;;;;;;913.43;819.90;;;1.20;99.90;;;;;;6174069;23;20422;-85
2021/12/11 04:17:11;;;;;;;909.73;816.67;;;1.30;99.90;;;;;;6164802;23;20418;-85
2021/12/11 04:19:41;;;;;;;910.67;816.00;;;1.30;99.90;;;;;;6174167;23;20786;-85
2021/12/11 04:22:08;;;;;;;925.57;829.20;;;1.30;99.90;;;;;;6165394;23;20425;-85
2021/12/11 04:24:40;;;;;;;924.73;828.47;;;1.10;99.90;;;;;;6175050;23;20434;-85
2021/12/11 04:27:11;;;;;;;940.80;842.50;;;1.00;99.90;;;;;;6174468;23;20418;-85
2021/12/11 04:29:40;;;;;;;952.10;854.00;;;1.00;99.90;;;;;;6165186;23;20402;-86
2021/12/11 04:32:08;;;;;;;941.77;844.37;;;1.00;99.90;;;;;;6165212;23;20417;-86
2021/12/11 04:34:36;;;;;;;959.37;857.90;;;1.10;99.90;;;;;;6176240;23;20421;-85
2021/12/11 04:37:10;;;;;;;947.43;846.33;;;1.20;99.90;;;;;;6176221;23;20409;-84
2021/12/11 04:39:41;;;;;;;937.27;836.90;;;1.20;99.90;;;;;;6177051;23;20492;-84
2021/12/11 04:42:24;;;;;;;933.80;833.80;;;1.30;99.90;;;;;;6166749;23;20398;-84
2021/12/11 04:44:51;;;;;;;932.73;833.70;;;1.50;99.90;;;;;;6165122;23;20961;-84
2021/12/11 04:47:31;;;;;;;923.57;825.23;;;1.40;99.90;;;;;;6166048;23;20420;-84
2021/12/11 04:50:05;;;;;;;933.73;832.33;;;1.50;99.90;;;;;;6176099;23;20498;-84
2021/12/11 04:52:42;;;;;;;933.07;832.30;;;1.40;99.90;;;;;;6167620;23;20407;-84
2021/12/11 04:55:25;;;;;;;907.87;807.90;;;1.30;99.90;;;;;;6166482;23;20456;-84
2021/12/11 04:58:13;;;;;;;905.67;807.03;;;1.40;99.90;;;;;;6174699;23;20438;-84
2021/12/11 05:00:58;;;;;;;921.47;822.37;;;1.40;99.90;;;;;;6173950;23;20442;-85
2021/12/11 05:06:33;;;;;;;906.30;806.30;;;1.60;99.90;;;;;;6145710;23;20413;-84
2021/12/11 05:11:53;;;;;;;904.23;806.93;;;1.70;99.90;;;;;;6163294;23;20413;-84
2021/12/11 05:14:24;;;;;;;899.87;802.83;;;1.80;99.90;;;;;;6164056;23;20421;-85
2021/12/11 05:16:51;;;;;;;893.23;794.27;;;1.90;99.90;;;;;;6164994;23;20446;-85
2021/12/11 05:19:20;;;;;;;901.10;800.70;;;1.90;99.90;;;;;;6175288;23;20430;-85
2021/12/11 05:21:47;;;;;;;892.80;793.83;;;1.90;99.90;;;;;;6174865;23;20420;-85
2021/12/11 05:24:17;;;;;;;903.03;802.40;;;1.90;99.90;;;;;;6172566;23;20433;-85
2021/12/11 05:26:49;;;;;;;891.33;794.13;;;2.10;99.90;;;;;;6173326;23;20440;-85
2021/12/11 05:29:18;;;;;;;880.23;784.63;;;2.00;99.90;;;;;;6173891;23;20458;-85
2021/12/11 05:31:50;;;;;;;877.17;782.70;;;2.00;99.90;;;;;;6164176;23;20420;-84
2021/12/11 05:34:19;;;;;;;888.57;791.63;;;2.10;99.90;;;;;;6174783;23;20403;-85
2021/12/11 05:36:47;;;;;;;871.17;775.80;;;2.10;99.90;;;;;;6174766;23;20417;-85
2021/12/11 05:39:16;;;;;;;880.17;784.23;;;2.10;99.90;;;;;;6168326;23;20433;-84
2021/12/11 05:41:44;;;;;;;877.53;780.50;;;2.10;99.90;;;;;;6178933;23;20465;-84
2021/12/11 05:44:19;;;;;;;875.63;780.03;;;2.10;99.90;;;;;;6175945;23;20464;-84
2021/12/11 05:46:51;;;;;;;876.33;781.13;;;2.20;99.90;;;;;;6176790;23;20418;-85
2021/12/11 05:49:18;;;;;;;880.50;783.80;;;2.20;99.90;;;;;;6166335;23;20470;-84
2021/12/11 05:51:53;;;;;;;863.30;769.70;;;2.30;99.90;;;;;;6173834;23;20500;-85
2021/12/11 05:54:27;;;;;;;864.63;771.20;;;2.30;99.90;;;;;;6165851;23;20421;-85
2021/12/11 05:59:53;;;;;;;868.43;776.20;;;2.20;99.90;;;;;;6166639;23;20492;-86
2021/12/11 06:02:33;;;;;;;864.23;772.37;;;2.20;99.90;;;;;;6172766;23;20704;-85
2021/12/11 06:07:55;;;;;;;858.53;766.77;;;2.30;99.90;;;;;;6156541;23;20438;-85
2021/12/11 06:10:24;;;;;;;854.33;761.63;;;2.40;99.90;;;;;;6163756;23;20508;-85
2021/12/11 06:12:54;;;;;;;855.97;761.33;;;2.50;99.90;;;;;;6172024;23;20409;-84
2021/12/11 06:15:22;;;;;;;850.70;759.30;;;2.50;99.90;;;;;;6169994;23;20428;-85
2021/12/11 06:17:51;;;;;;;845.63;757.50;;;2.50;99.90;;;;;;6160760;23;20440;-85
2021/12/11 06:20:31;;;;;;;839.23;750.90;;;2.60;99.90;;;;;;6161570;23;20417;-84
2021/12/11 06:22:58;;;;;;;842.97;753.90;;;2.60;99.90;;;;;;6171867;23;20806;-85
2021/12/11 06:25:36;;;;;;;844.00;755.70;;;2.40;99.90;;;;;;6164319;23;20434;-85
2021/12/11 06:28:04;;;;;;;856.50;767.97;;;2.50;99.90;;;;;;6175181;23;20442;-85
2021/12/11 06:30:32;;;;;;;839.80;753.00;;;2.50;99.90;;;;;;6166156;23;20453;-84
2021/12/11 06:33:00;;;;;;;846.50;759.33;;;2.50;99.90;;;;;;6176118;23;20414;-85
2021/12/11 06:35:34;;;;;;;842.57;756.90;;;2.40;99.90;;;;;;6165343;23;20493;-85
2021/12/11 06:38:01;;;;;;;854.30;767.87;;;2.40;99.90;;;;;;6175764;23;21026;-85
2021/12/11 06:40:31;;;;;;;840.33;755.53;;;2.40;99.90;;;;;;6165519;23;20450;-85
2021/12/11 06:43:06;;;;;;;844.07;760.07;;;2.40;99.90;;;;;;6172696;23;20477;-85
2021/12/11 06:45:40;;;;;;;859.97;773.70;;;2.50;99.90;;;;;;6173203;23;20443;-84
2021/12/11 06:48:18;;;;;;;863.63;776.73;;;2.40;99.90;;;;;;6162838;23;20437;-85
2021/12/11 06:50:46;;;;;;;856.67;770.73;;;2.50;99.90;;;;;;6173151;23;20398;-85
2021/12/11 06:53:18;;;;;;;846.83;763.03;;;2.40;99.90;;;;;;6163295;23;20418;-85
2021/12/11 06:55:45;;;;;;;860.43;774.23;;;2.30;99.90;;;;;;6162069;23;20390;-84
2021/12/11 06:58:12;;;;;;;864.43;780.73;;;2.20;99.90;;;;;;6162565;23;20434;-85
2021/12/11 07:00:47;;;;;;;856.87;773.13;;;2.00;99.90;;;;;;6163651;23;20432;-85
2021/12/11 07:03:40;;;;;;;854.63;770.40;;;2.00;99.90;;;;;;6171186;23;20416;-84
2021/12/11 07:06:12;;;;;;;857.90;771.43;;;1.80;99.90;;;;;;6155078;23;20489;-82
2021/12/11 07:08:40;;;;;;;874.20;786.40;;;1.80;99.90;;;;;;6174904;23;20431;-84
2021/12/11 07:11:16;;;;;;;878.37;788.83;;;1.60;99.90;;;;;;6174531;23;20439;-84
2021/12/11 07:14:09;;;;;;;883.53;794.57;;;1.70;99.90;;;;;;6164132;23;20409;-84
2021/12/11 07:16:39;;;;;;;876.67;787.70;;;1.80;99.90;;;;;;6173657;23;20420;-84
2021/12/11 07:19:13;;;;;;;894.07;803.67;;;1.80;99.90;;;;;;6163359;23;20461;-84
2021/12/11 07:21:50;;;;;;;903.13;813.07;;;1.80;99.90;;;;;;6174083;23;20867;-84
2021/12/11 07:24:24;;;;;;;906.93;814.57;;;1.90;99.90;;;;;;6162283;23;20462;-84
2021/12/11 07:26:52;;;;;;;907.03;814.63;;;2.00;99.90;;;;;;6164096;23;20382;-85
2021/12/11 07:29:44;;;;;;;;;;;;;;;;;;;;;
2021/12/11 07:32:14;;;;;;;915.77;820.87;;;2.10;99.90;;;;;;6173558;23;20896;-85
2021/12/11 07:34:43;;;;;;;923.13;829.77;;;2.30;99.90;;;;;;6173928;23;20414;-87
2021/12/11 07:37:31;;;;;;;916.27;823.43;;;2.40;99.90;;;;;;6171935;23;20453;-85
2021/12/11 07:40:01;;;;;;;917.60;823.83;;;2.40;99.90;;;;;;6172147;23;20457;-86
2021/12/11 07:42:29;;;;;;;903.70;810.70;;;2.40;99.90;;;;;;6169414;23;20406;-86
2021/12/11 07:45:09;;;;;;;903.87;812.20;;;2.50;99.90;;;;;;6167812;23;20433;-85
2021/12/11 07:47:44;;;;;;;907.47;815.07;;;2.40;99.90;;;;;;6168022;23;20516;-84
2021/12/11 07:50:23;;;;;;;911.77;819.27;;;2.60;99.90;;;;;;6159654;23;20429;-85
2021/12/11 07:53:08;;;;;;;889.60;797.73;;;2.60;99.90;;;;;;6168994;23;20429;-84
2021/12/11 07:59:25;;;;;;;880.43;790.27;;;2.60;99.90;;;;;;6018806;23;20449;-84
2021/12/11 08:02:22;;;;;;;875.57;785.10;;;2.60;99.90;;;;;;6056873;23;20780;-85
2021/12/11 08:05:04;;;;;;;858.43;768.03;;;2.80;99.90;;;;;;6159153;23;20581;-86
2021/12/11 08:14:45;;;;;;;869.30;779.90;;;2.90;99.90;;;;;;6040954;23;20425;-85
2021/12/11 08:20:54;;;;;;;882.53;789.63;;;3.00;99.90;;;;;;6040163;23;20402;-86
2021/12/11 08:24:06;;;;;;;896.60;803.43;;;3.00;99.90;;;;;;6103383;23;20981;-85
2021/12/11 08:26:53;;;;;;;898.47;808.03;;;3.10;99.90;;;;;;6174602;23;20437;-86
2021/12/11 08:29:42;;;;;;;895.60;806.70;;;3.30;99.90;;;;;;6174977;23;20437;-85
2021/12/11 08:32:17;;;;;;;889.97;798.13;;;3.20;99.90;;;;;;6173795;23;20410;-86
2021/12/11 08:34:45;;;;;;;905.93;815.93;;;3.30;99.90;;;;;;6173895;23;20443;-85
2021/12/11 08:37:15;;;;;;;885.40;795.53;;;3.40;99.90;;;;;;6165362;23;20497;-86
2021/12/11 08:39:44;;;;;;;884.27;796.80;;;3.30;99.90;;;;;;6173201;23;20413;-85
2021/12/11 08:42:15;;;;;;;876.23;790.20;;;3.30;99.90;;;;;;6172321;23;20406;-84
2021/12/11 08:51:18;;;;;;;873.93;788.13;;;3.40;99.90;;;;;;6055763;23;20400;-85
2021/12/11 08:53:50;;;;;;;873.67;788.27;;;3.50;99.90;;;;;;6166209;23;20501;-85
2021/12/11 08:56:45;;;;;;;881.67;794.90;;;3.50;99.90;;;;;;6171754;23;20402;-85
2021/12/11 08:59:17;;;;;;;866.50;781.30;;;3.40;99.90;;;;;;6159335;23;20456;-84
2021/12/11 09:02:06;;;;;;;866.70;783.17;;;3.40;99.90;;;;;;6201883;23;20468;-84
2021/12/11 09:04:56;;;;;;;836.33;758.63;;;3.50;99.90;;;;;;6200579;23;20905;-85
2021/12/11 09:07:30;;;;;;;832.23;751.50;;;3.50;99.90;;;;;;6189593;23;20428;-85
2021/12/11 09:10:06;;;;;;;820.30;742.10;;;3.50;99.90;;;;;;6189945;23;20480;-82
2021/12/11 09:12:42;;;;;;;805.30;730.57;;;3.50;99.90;;;;;;6199776;23;20415;-84
2021/12/11 09:15:12;;;;;;;799.50;723.23;;;3.60;99.90;;;;;;6189963;23;20400;-87
2021/12/11 09:17:46;;;;;;;808.60;730.63;;;3.50;99.90;;;;;;6191956;23;20506;-84
2021/12/11 09:20:23;;;;;;;810.85;732.67;;;3.60;99.90;;;;;;6203291;23;20418;-84
2021/12/11 09:23:04;;;;;;;806.47;726.97;;;3.70;99.90;;;;;;6200948;23;20783;-82
2021/12/11 09:25:45;;;;;;;789.63;714.23;;;3.60;99.90;;;;;;6194779;23;20805;-84
2021/12/11 09:28:22;;;;;;;787.47;713.23;;;3.80;99.90;;;;;;6202725;23;20455;-85
2021/12/11 09:31:09;;;;;;;782.20;707.30;;;3.90;99.90;;;;;;6194114;23;20413;-85
2021/12/11 09:33:41;;;;;;;784.47;710.53;;;3.80;99.90;;;;;;6120260;23;20421;-84
2021/12/11 09:36:11;;;;;;;775.37;702.27;;;3.90;99.90;;;;;;6202295;23;20390;-84
2021/12/11 09:38:44;;;;;;;781.70;709.03;;;3.80;99.90;;;;;;6190867;23;20460;-84
2021/12/11 09:41:24;;;;;;;780.47;705.20;;;3.90;99.90;;;;;;6189414;23;20958;-85
2021/12/11 09:43:56;;;;;;;782.47;708.73;;;3.80;99.90;;;;;;6197877;23;20425;-82
2021/12/11 09:49:19;;;;;;;799.97;723.47;;;3.80;99.90;;;;;;6173150;23;20431;-82
2021/12/11 09:51:48;;;;;;;800.27;725.50;;;3.90;99.90;;;;;;6196161;23;20412;-81
2021/12/11 09:54:20;;;;;;;814.43;737.40;;;4.00;99.90;;;;;;6188854;23;20916;-82
2021/12/11 09:56:50;;;;;;;816.67;738.57;;;4.10;99.90;;;;;;6185855;23;20761;-81
2021/12/11 09:59:21;;;;;;;794.27;718.47;;;4.20;99.90;;;;;;6185568;23;20970;-84
2021/12/11 10:01:51;;;;;;;798.57;724.57;;;4.40;99.90;;;;;;6187550;23;20400;-83
2021/12/11 10:04:32;;;;;;;796.40;720.70;;;4.40;99.90;;;;;;6200125;23;20413;-85
2021/12/11 10:07:25;;;;;;;794.10;718.63;;;4.50;99.90;;;;;;6188083;23;20796;-83
2021/12/11 10:09:55;;;;;;;808.20;730.87;;;4.80;99.90;;;;;;6198584;23;20413;-85
2021/12/11 10:12:27;;;;;;;783.17;707.53;;;4.80;99.90;;;;;;6197219;23;20760;-83
2021/12/11 10:15:02;;;;;;;788.30;711.50;;;4.90;99.90;;;;;;6198100;23;20448;-83
2021/12/11 10:17:36;;;;;;;783.90;707.67;;;5.00;99.90;;;;;;6187627;23;20428;-84
2021/12/11 10:20:07;;;;;;;768.83;694.77;;;5.00;99.90;;;;;;6187337;23;20405;-81
2021/12/11 10:22:40;;;;;;;758.90;684.53;;;5.00;99.90;;;;;;6187503;23;20399;-85
2021/12/11 10:25:25;;;;;;;751.77;677.60;;;5.10;99.90;;;;;;6197833;23;20421;-83
2021/12/11 10:27:54;;;;;;;768.13;693.47;;;5.30;99.90;;;;;;6188756;23;20444;-83
2021/12/11 10:30:25;;;;;;;764.37;690.83;;;5.50;99.90;;;;;;6198714;23;20417;-83
2021/12/11 10:35:49;;;;;;;774.07;705.07;;;5.60;99.90;;;;;;6106978;23;20415;-83
2021/12/11 10:38:17;;;;;;;752.60;685.00;;;5.80;99.90;;;;;;6173950;23;20440;-83
2021/12/11 10:40:47;;;;;;;759.57;692.00;;;5.70;99.90;;;;;;6188338;23;20419;-84
2021/12/11 10:43:17;;;;;;;750.90;685.20;;;5.80;99.90;;;;;;6188860;23;20412;-84
2021/12/11 10:45:47;;;;;;;745.40;681.73;;;5.80;99.90;;;;;;6188010;23;20443;-82
2021/12/11 10:48:19;;;;;;;745.43;684.47;;;5.80;99.90;;;;;;6187589;23;20465;-84
2021/12/11 10:50:49;;;;;;;747.67;686.67;;;5.70;99.90;;;;;;6189114;23;20397;-84
2021/12/11 10:53:19;;;;;;;745.87;686.40;;;5.80;99.90;;;;;;6200066;23;20409;-85
2021/12/11 10:55:47;;;;;;;740.20;679.83;;;5.80;99.90;;;;;;6188378;23;20809;-84
2021/12/11 10:58:20;;;;;;;738.47;678.70;;;5.80;99.90;;;;;;6189218;23;20436;-84
2021/12/11 11:00:51;;;;;;;735.00;676.40;;;5.90;99.90;;;;;;6187848;23;20393;-83
2021/12/11 11:03:18;;;;;;;734.60;676.27;;;5.90;99.90;;;;;;6200520;23;20390;-83
2021/12/11 11:06:11;;;;;;;742.67;682.43;;;6.00;99.90;;;;;;6200991;23;20459;-83
2021/12/11 11:08:39;;;;;;;729.70;670.10;;;6.00;99.90;;;;;;6190701;23;20433;-84
2021/12/11 11:11:10;;;;;;;721.93;662.90;;;6.10;99.90;;;;;;6190039;23;20412;-84
2021/12/11 11:13:37;;;;;;;727.70;670.10;;;6.00;99.90;;;;;;6200926;23;20437;-84
2021/12/11 11:16:06;;;;;;;728.03;670.50;;;6.00;99.90;;;;;;6190560;23;20727;-85
2021/12/11 11:18:33;;;;;;;730.83;673.80;;;6.10;99.90;;;;;;6191797;23;20520;-85
2021/12/11 11:21:05;;;;;;;736.00;680.40;;;6.20;99.90;;;;;;6192830;23;20754;-83
2021/12/11 11:23:32;;;;;;;734.60;679.00;;;6.30;99.90;;;;;;6190975;23;20397;-83
2021/12/11 11:26:03;;;;;;;725.87;674.23;;;6.40;99.90;;;;;;6190050;23;20437;-84
2021/12/11 11:28:33;;;;;;;731.27;679.07;;;6.40;99.90;;;;;;6191055;23;20939;-84
2021/12/11 11:31:03;;;;;;;723.43;674.73;;;6.40;99.90;;;;;;6191030;23;20451;-84
2021/12/11 11:33:33;;;;;;;718.97;672.43;;;6.50;99.90;;;;;;6189409;23;20397;-85
2021/12/11 11:36:02;;;;;;;696.60;657.30;;;6.60;99.90;;;;;;6189056;23;20413;-84
2021/12/11 11:38:33;;;;;;;683.33;644.13;;;6.60;99.90;;;;;;6200012;23;20516;-82
2021/12/11 11:41:06;;;;;;;634.33;601.63;;;6.60;99.90;;;;;;6193942;23;20406;-85
2021/12/11 11:43:33;;;;;;;605.43;576.80;;;6.60;99.90;;;;;;6204281;23;20391;-85
2021/12/11 11:46:24;;;;;;;601.93;574.10;;;6.60;99.90;;;;;;6205632;23;20444;-83
2021/12/11 11:48:58;;;;;;;569.43;543.70;;;6.70;99.90;;;;;;6188589;23;20435;-84
2021/12/11 11:51:28;;;;;;;544.83;521.87;;;6.70;99.90;;;;;;6193167;23;20778;-84
2021/12/11 11:53:55;;;;;;;570.73;545.63;;;6.70;99.90;;;;;;6192004;23;20397;-86
2021/12/11 11:56:26;;;;;;;567.63;542.60;;;6.80;99.90;;;;;;6195319;23;20727;-85
2021/12/11 11:58:54;;;;;;;580.43;555.20;;;6.80;99.90;;;;;;6193752;23;20473;-84
2021/12/11 12:01:25;;;;;;;562.87;538.23;;;6.90;99.90;;;;;;6202307;23;20422;-85
2021/12/11 12:03:54;;;;;;;549.63;525.77;;;6.90;99.90;;;;;;6192187;23;20423;-85
2021/12/11 12:06:37;;;;;;;486.47;467.93;;;6.90;99.90;;;;;;6191563;23;20527;-84
2021/12/11 12:09:43;;;;;;;430.00;414.23;;;7.00;99.90;;;;;;6204308;23;20443;-83
2021/12/11 12:12:54;;;;;;;474.70;456.73;;;6.90;99.90;;;;;;6074836;23;20416;-84
2021/12/11 12:18:05;;;;;;;450.80;432.97;;;7.00;99.90;;;;;;6097743;23;20452;-84
2021/12/11 12:20:35;;;;;;;484.30;465.47;;;6.90;99.90;;;;;;6186894;23;20412;-83
2021/12/11 12:23:02;;;;;;;502.90;483.07;;;6.80;99.90;;;;;;6187931;23;20974;-84
2021/12/11 12:25:29;;;;;;;461.93;444.53;;;6.80;99.90;;;;;;6187858;23;20472;-84
2021/12/11 12:27:56;;;;;;;436.27;420.37;;;6.80;99.90;;;;;;6188505;23;20440;-85
2021/12/11 12:30:33;;;;;;;373.70;360.63;;;6.80;99.90;;;;;;6188602;23;20476;-83
2021/12/11 12:33:00;;;;;;;357.33;343.63;;;6.80;99.90;;;;;;6188698;23;20397;-84
2021/12/11 12:35:29;;;;;;;389.90;375.30;;;6.70;99.90;;;;;;6187397;23;20409;-84
2021/12/11 12:37:58;;;;;;;405.23;390.67;;;6.70;99.90;;;;;;6188389;23;20805;-83
2021/12/11 12:40:32;;;;;;;369.20;356.07;;;6.70;99.90;;;;;;6189331;23;20413;-83
2021/12/11 12:43:10;;;;;;;407.80;393.40;;;6.70;99.90;;;;;;6199358;23;20413;-83
2021/12/11 12:45:42;;;;;;;477.93;459.60;;;6.60;99.90;;;;;;6188173;23;20463;-83
2021/12/11 12:48:17;;;;;;;530.37;509.97;;;6.70;99.90;;;;;;6188351;23;20432;-82
2021/12/11 12:50:48;;;;;;;553.97;532.20;;;6.60;99.90;;;;;;6188381;23;20408;-83
2021/12/11 12:53:17;;;;;;;563.90;541.03;;;6.60;99.90;;;;;;6188158;23;20397;-83
2021/12/11 12:55:48;;;;;;;556.10;533.87;;;6.60;99.90;;;;;;6189438;23;20428;-83
2021/12/11 12:58:19;;;;;;;538.23;517.13;;;6.70;99.90;;;;;;6188822;23;20436;-84
2021/12/11 13:00:48;;;;;;;529.07;508.17;;;6.80;99.90;;;;;;6189893;23;20410;-84
2021/12/11 13:03:18;;;;;;;465.77;448.67;;;6.90;99.90;;;;;;6189905;23;20416;-85
2021/12/11 13:05:50;;;;;;;412.57;398.40;;;7.10;99.90;;;;;;6189607;23;20455;-84
2021/12/11 13:08:21;;;;;;;441.20;424.70;;;7.00;99.90;;;;;;6188975;23;20523;-82
2021/12/11 13:10:51;;;;;;;452.33;435.37;;;7.00;99.90;;;;;;6189514;23;20397;-83
2021/12/11 13:13:21;;;;;;;430.47;414.27;;;6.80;99.90;;;;;;6190566;23;20419;-83
2021/12/11 13:15:54;;;;;;;461.23;444.30;;;6.80;99.90;;;;;;6190046;23;20392;-83
2021/12/11 13:18:23;;;;;;;367.83;354.50;;;6.70;99.90;;;;;;6189995;23;20444;-84
2021/12/11 13:21:03;;;;;;;411.20;396.10;;;6.60;99.90;;;;;;6190668;23;20412;-84
2021/12/11 13:23:54;;;;;;;449.00;432.47;;;6.50;99.90;;;;;;6195188;23;20999;-83
2021/12/11 13:26:24;;;;;;;482.87;465.30;;;6.30;99.90;;;;;;6192665;23;20443;-84
2021/12/11 13:28:55;;;;;;;592.70;568.50;;;6.10;99.90;;;;;;6203821;23;20431;-85